Maryland Judiciary HOME

2010 Index Listing of Appellate Court Opinions

Thu Feb 22 18:10:54 EST 2024
CASE PDF
docket/term
CITATION FILED JUDGE PARTIES Line
2833/09196 Md.App. 684 2010-12-29 Wright Logan v. LSP1
1907/09196 Md.App. 658 2010-12-29 Moylan Miller v. State2
1779/09197 Md.App. 179 2010-12-29 Matricciani Environmental Integrity v. Mirant3
1708/09197 Md.App. 195 2010-12-29 Matricciani D'Aoust v. Diamond4
59ag/10417 Md. 478 2010-12-29 Order Attorney Grievance v. Crossland5
1178/08196 Md.App. 494 2010-12-28 Thieme Smith v. State6
753/09196 Md.App. 590 2010-12-28 Sharer Genies v. State7
1559/08196 Md.App. 634 2010-12-28 Davis Coleman v. State8
686/09196 Md.App. 563 2010-12-28 Alpert Peterson v. State9
434/09196 Md.App. 457 2010-12-22 Salmon Anderson v. Burson10
620/09196 Md.App. 477 2010-12-22 Rodowsky Butcher v. State11
30/10417 Md. 449 2010-12-22 Battaglia State v. Mayers12
24/10417 Md. 413 2010-12-21 Greene Elliott v. State13
6ag/09417 Md. 504 2010-12-20 Barbera Attorney Grievance v. Fox14
2m/10417 Md. 386 2010-12-20 Barbera AGV Sports v. Protus IP15
26/10417 Md. 401 2010-12-20 Adkins Ireland v. Shearn16
1642/09197 Md.App. 123 2010-12-17 Hollander Sharp v. Downey17
130/07417 Md. 332 2010-12-17 Eldridge Grimstead v. Brockington18
116/09417 Md. 360 2010-12-17 Adkins Cost v. State19
46ag/10417 Md. 330 2010-12-16 Order Attorney Grievance v. Elmendorf20
27/10417 Md. 271 2010-12-16 Harrell Montgomery County v. Butler21
28/10417 Md. 309 2010-12-16 Harrell Bates v. Cohn22
83/10196 Md.App. 384 2010-12-10 Moylan State v. Harding23
2350/09196 Md.App. 617 2010-12-10 Graeff Allen v. Ritter24
6m/10417 Md. 269 2010-12-06 Order Application of Stern25
1517/09196 Md.App. 318 2010-12-03 Eyler, J. MEMC v BP26
1749/09196 Md.App. 362 2010-12-03 Eyler, J. Kim v. Board of Physicians27
36/10417 Md. 259 2010-12-03 Battaglia In Re: Tatianna B.28
977/09196 Md.App. 235 2010-12-02 Zarnoch Thompson v. State Farm29
713/09196 Md.App. 296 2010-12-02 Matricciani Estime v. King30
1480/09196 Md.App. 254 2010-12-02 Graeff Sivells v. State31
940/09196 Md.App. 309 2010-12-02 Eyler, J. Copeland v. State32
4ag/10417 Md. 257 2010-12-02 Order Attorney Grievance v. Charles33
2927/08196 Md.App. 212 2010-12-01 Thieme Carpenter v. State34
1694/08196 Md.App. 195 2010-12-01 Matricciani Rochkind v. Finch35
143/09417 Md. 217 2010-12-01 Greene Collins v. National RR Passenger Corp.36
49ag/09417 Md. 185 2010-11-30 Harrell Attorney Grievance v. Palmer37
25/10417 Md. 165 2010-11-22 Harrell Stouffer v. Holbrook38
8/10417 Md. 28 2010-11-22 Harrell Bayly Crossing v. Consumer Protection39
133/09417 Md. 90 2010-11-22 Adkins In Re: Adoption of Ta'Niya C.40
21/10417 Md. 146 2010-11-22 Adkins In Re: Adoption of Cadence B.41
65/09417 Md. 76 2010-11-19 Murphy Sanchez v. Potomac Abatement42
72/08417 Md. 57 2010-11-19 Murphy Reiter v. Pneumo Abex43
48ag/10417 Md. 56 2010-11-18 Order Resignation of J. K. Gordon44
3/10417 Md. 31 2010-11-09 Battaglia Crispino v. State45
1/10417 Md. 1 2010-11-04 Battaglia Bishop v. State46
1394/09196 Md.App. 169 2010-11-03 Wright Williams v. Circuit Court47
1378/09196 Md.App. 146 2010-11-03 Moylan Wood v. State48
2650/08196 Md.App. 131 2010-11-03 Kehoe Lecronier v. UPS49
15/10416 Md. 707 2010-11-03 Battaglia Hashmi v. Bennett50
659/07196 Md.App. 81 2010-11-01 Woodward Davis v. State51
1006/09196 Md.App. 15 2010-11-01 Thieme Anselmo v. Rockville52
1286/09196 Md.App. 439 2010-11-01 Moylan Mohiuddin v. Doctors Billing53
921/09196 Md.App. 37 2010-10-29 Thieme Marks v. Criminal Compensation54
1759/07195 Md.App. 695 2010-10-29 Kenney Moore v. State55
815/09196 Md.App. 1 2010-10-29 Eyler, D. Barufaldi v. Ocean City56
356/09195 Md.App. 583 2010-10-28 Thieme Gallagher v. Joppa Drive-Thru57
2739/08195 Md.App. 557 2010-10-28 Sharer Cure v. State58
497/09195 Md.App. 647 2010-10-28 Moylan Wilson v. State59
469/09195 Md.App. 599 2010-10-28 Kenney Armstead v. State60
125/09416 Md. 628 2010-10-28 Greene Kearney v. Berger61
136/08416 Md. 568 2010-10-28 Barbera Cuffley v. State62
135/08416 Md. 604 2010-10-28 Barbera Baines v. State63
2634/09195 Md.App. 491 2010-10-27 Hollander In Re: Alijah Q.64
2936/09195 Md.App. 524 2010-10-27 Graeff Meyr v. Meyr65
30/09416 Md. 670 2010-10-27 Raker Williams v. State66
152/08416 Md. 505 2010-10-27 Barbera Park v. Cangen67
33/09416 Md. 533 2010-10-27 Barbera Appiah v. Hall68
25ag/10416 Md. 503 2010-10-26 Order Attorney Grievance v. Thomas69
68/09416 Md. 432 2010-10-26 Greene Longus v. State70
83/09416 Md. 467 2010-10-26 Greene Donaldson v. State71
67/09416 Md. 418 2010-10-26 Barbera Martinez v. State72
58/09416 Md. 389 2010-10-26 Barbera Carven v. State Retirement73
96pc/10416 Md. 388 2010-10-25 PC Order State v. Maddox74
141/09416 Md. 346 2010-10-25 Greene WalMart v. Holmes75
43/09416 Md. 325 2010-10-25 Adkins Monmouth Meadows v. Hamilton76
79/08416 Md. 312 2010-10-22 Murphy Marwani v. Catering by Uptown77
52/08416 Md. 276 2010-10-22 Eldridge Stachowski v. State78
76/09416 Md. 211 2010-10-21 Harrell Pease v. Wachovia79
7/10416 Md. 249 2010-10-21 Harrell Ali v. CIT80
42ag/10416 Md. 209 2010-10-18 Order Attorney Grievance v. Seiden81
19pco/10416 Md. 208 2010-10-13 PC Order In Re: Layla A.82
13pco/10416 Md. 207 2010-10-13 PC Order Bayview v. Carr83
20/09416 Md. 125 2010-10-07 Murphy Henderson v. State84
95/09416 Md. 157 2010-10-07 Barbera State v. Pair85
121/08416 Md. 94 2010-10-06 Bell Schreyer v. Chaplain 86
1017/09195 Md.App. 443 2010-10-05 Meredith Stitzel v. State87
1288/09195 Md.App. 461 2010-10-05 Graeff Fireison v. Alkire88
1315/09195 Md.App. 477 2010-10-05 Alpert In Re: Melvin M.89
41ag/10416 Md. 93 2010-10-05 Order Attorney Grievance v. Honick90
40ag/10416 Md. 92 2010-10-05 Order Attorney Grievance v. Holt91
369/09195 Md.App. 361 2010-10-04 Zarnoch Porter v. Zuromski92
181/09195 Md.App. 340 2010-10-04 Sharer Powell v. Breslin93
617/09195 Md.App. 377 2010-10-04 Matricciani Breakfield v. State94
645/09195 Md.App. 403 2010-10-04 Graeff Kelly v. State95
109/09416 Md. 74 2010-10-04 Barbera Ocean Petroleum v. Yanek96
2508/08195 Md.App. 232 2010-10-01 Salmon Thomas v. Panco97
2754/08195 Md.App. 263 2010-10-01 Graeff Lieberman v. Mayavision98
25/09195 Md.App. 287 2010-10-01 Alpert S.B v. Social Services99
118/09195 Md.App. 311 2010-10-01 Alpert Pryor v. State100
2024/08195 Md.App. 232 2010-09-30 Kehoe Kargbo v. Gaston101
1885/08195 Md.App. 124 2010-09-30 Hollander MTA Lodge #34 v. MTA102
1015/08195 Md.App. 72 2010-09-30 Hollander Brown v. Brown103
496/08195 Md.App. 32 2010-09-29 Meredith Pace v. State104
824/08195 Md.App. 53 2010-09-29 Meredith Dumbarton v. Druid Ridge 105
86pc/10416 Md. 73 2010-09-29 PC Order Fire-Rescue v. Board of Elections106
19ag/10416 Md. 71 2010-09-28 Order Attorney Grievance v. Siejack107
16ag/10416 Md. 71 2010-09-28 Order Attorney Grievance v. Buckel108
104/09416 Md. 46 2010-09-24 Greene DRD v. Freed109
101/09416 Md. 15 2010-09-24 Adkins In Re: Elrich S.110
129/09416 Md. 1 2010-09-21 Murphy State v. Kanavy111
118/09415 Md. 727 2010-09-21 Greene Dove v. State112
1112/09195 Md.App. 1 2010-09-20 Wright Barnes v. State113
1716/09195 Md.App. 19 2010-09-20 Graeff Keys v. State114
3m/09415 Md. 676 2010-09-20 Murphy St. Mary's County v. Marcas115
28ag/09415 Md. 696 2010-09-20 Harrell Attorney Grievance v. Edib116
742/09194 Md.App. 664 2010-09-17 Raker Bereska v. State117
473/09194 Md.App. 629 2010-09-17 Graeff Cox v. State118
418/09194 Md.App. 601 2010-09-17 Eyler, D. Sparrows Point v. PSC119
983/09194 Md.App. 695 2010-09-17 Eyler, D. Gonsalves v. Bingel120
279/09194 Md.App. 569 2010-09-15 Eyler, J. Balt. St. Parking v. Baltimore121
199/09194 Md.App. 538 2010-09-14 Woodward BTR v. Source Interlink122
6/09194 Md.App. 526 2010-09-14 Kenney Ross v. Chakrabarti123
2796/08194 Md.App. 477 2010-09-14 Eyler, D. Boland v. Boland124
2314/08194 Md.App. 375 2010-09-13 Zarnoch School Commissioners v. Koba125
2364/08194 Md.App. 431 2010-09-13 Eyler, D. Lasater v. Guttman126
31ag/10415 Md. 606 2010-09-09 Order Attorney Grievance v. Solomon127
20ag/10415 Md. 605 2010-09-09 Order Attorney Grievance v. Chang128
1780/08194 Md.App. 375 2010-09-07 Sharer Central Truck v. Central GMC129
1465/08194 Md.App. 252 2010-09-03 Kehoe McCain v. State130
1509/08194 Md.App. 285 2010-09-03 Hollander Simms v. State131
1046/08194 Md.App. 216 2010-09-03 Graeff Lupfer v. State132
1737/08194 Md.App. 327 2010-09-03 Davis Moore v. State133
13/09415 Md. 585 2010-09-03 Bell Adams v. State134
1013/08194 Md.App. 190 2010-09-02 Woodward Jefferson v. State135
1011/08194 Md.App. 162 2010-09-02 Graeff Sanders v. State136
918/08194 Md.App. 110 2010-09-01 Woodward Jones v. State137
1784/09194 Md.App. 137 2010-09-01 Davis Bussell v. Bussell138
128/09415 Md. 567 2010-08-31 Murphy State v. Rich139
5/09415 Md. 551 2010-08-31 Murphy State v. DiGennaro140
52/09415 Md. 612 2010-08-31 Murphy Ameriquest v. Paramount141
148/09415 Md. 612 2010-08-27 Harrell State v. Hardy142
156/08415 Md. 434 2010-08-25 Murphy Roosevelt v. Corapcioglu143
138/09415 Md. 523 2010-08-25 Harrell Willis v. Montgomery County144
126/09415 Md. 475 2010-08-25 Harrell Tyler v. College Park145
11ag/09416 Md. 445 2010-08-25 Harrell Attorney Grievance v. Nwadike146
50/09415 Md. 445 2010-08-25 Greene Dillard v. State147
157pc/09415 Md. 433 2010-08-24 PC Order Taxpayers v. Board of Election148
156pc/09415 Md. 432 2010-08-24 PC Order State v. Allen149
155pc/09415 Md. 431 2010-08-24 PC Order McHale v. Hagberg150
140/09415 Md. 413 2010-08-23 Harrell State v. Johnson151
127/09415 Md. 399 2010-08-23 Harrell Marshall v. State152
90ag/09415 Md. 371 2010-08-17 Order Attorney Grievance v. Nusbaum153
899/08194 Md.App. 76 2010-08-04 Raker Fleming v. State154
53ag/09415 Md. 341 2010-07-28 Battaglia Attorney Grievance v. Thaxton155
9/08415 Md. 248 2010-07-27 Eldridge Marshall v. State156
135/09415 Md. 286 2010-07-27 Battaglia State v. Matthews157
136/09415 Md. 313 2010-07-27 Battaglia Mattingly v. Hartford Underwriters158
3ag/09415 Md. 269 2010-07-27 Adkins Attorney Grievance v. Brown159
79/09415 Md. 372 2010-07-26 Adkins Talbot County v. Miles Point160
82/09415 Md. 231 2010-07-26 Adkins Hill v. MVA161
105/09415 Md. 174 2010-07-23 Harrell Smith v. State162
147/09415 Md. 210 2010-07-23 Barbera Miller Metal Fabrication v. Wall163
12/08415 Md. 122 2010-07-22 Murphy Caldes v. Elm Street Development164
123/09415 Md. 145 2010-07-22 Harrell McHale v. DCW Dutchship Island165
1jd/09415 Md. 118 2010-07-21 Order In the Matter of Judge Nalley166
86ag/09415 Md. 120 2010-07-21 Order Attorney Grievance v. Eckel167
83ag/09415 Md. 119 2010-07-21 Order Attorney Grievance v. Blair168
154pc/09415 Md. 117 2010-07-20 PC Order Citizens Against Slots v. PPE Casino169
8ag/10415 Md. 60 2010-07-15 Order Attorney Grievance v. Fisher170
82/08415 Md. 44 2010-07-15 Barbera State v. Camper171
595/09193 Md.App. 666 2010-07-08 Woodward Agency Insurance v. State Farm172
375/09193 Md.App. 640 2010-07-08 Kehoe Meyer v. Meyer173
2667/08193 Md.App. 534 2010-07-07 Zarnoch Smith v. Bortner174
2971/08193 Md.App. 558 2010-07-07 Rodowsky Roe v. Doe175
152/09193 Md.App. 582 2010-07-07 Rodowsky King v. State176
1408/08193 Md.App. 522 2010-07-06 Matricciani Palmer v. State177
2240/08194 Md.App. 1 2010-07-06 Hollander Furda v. State178
1464/08193 Md.App. 718 2010-07-06 Hollander Dansbury v. State179
400/08193 Md.App. 446 2010-07-02 Matricciani Arthur v. State180
2117/09193 Md.App. 469 2010-07-02 Hollander Parker v. State181
3053/07193 Md.App. 371 2010-07-02 Hollander Furda v. State182
313/08193 Md.App. 426 2010-07-02 Graeff Aguilera v. State183
1944/06193 Md.App. 259 2010-07-01 Salmon Canela and Perez v. State184
861/09193 Md.App. 322 2010-07-01 Davis State v. Holton185
48/09415 Md. 22 2010-06-30 Adkins State v. Davis186
1ag/10415 Md. 21 2010-06-28 Order Attorney Grievance v. Dorsey187
133/08415 Md. 1 2010-06-23 Barbera MVA v. Shea188
110/09414 Md. 726 2010-06-18 Battaglia Charles and Drake v. State189
100/09414 Md. 686 2010-06-17 Bell Jones v. State190
119/09414 Md. 708 2010-06-17 Battaglia Yearby v. State191
37/09414 Md. 641 2010-06-16 Battaglia Julian v. Buonassissi192
106/09414 Md. 616 2010-06-10 Murphy Calloway v. State193
84/09414 Md. 585 2010-06-10 Greene Nefredo v. Montgomery County194
23/09414 Md. 556 2010-06-09 Adkins Della Ratta v. Dyas195
21/09414 Md. 531 2010-06-08 Eldridge State v. Prue196
150pc/09414 Md. 500 2010-06-07 PC Order Dasher v. State197
88/09414 Md. 483 2010-06-07 Adkins Grant v. State198
12ag/10414 Md. 482 2010-06-04 Order Attorney Grievance v. Allison199
578/09193 Md.App. 160 2010-06-03 Wilner Noor v. Centreville Bank200
723/09193 Md.App. 215 2010-06-03 Meredith Edery v. Edery201
668/09193 Md.App. 193 2010-06-03 Graeff Carter v. State202
882/09193 Md.App. 238 2010-06-03 Davis Hickman v. State203
503/09193 Md.App. 122 2010-06-02 Moylan Randolph v. State204
425/09193 Md.App. 80 2010-06-02 Eyler, D. Hansen v. City of Laurel205
453/09193 Md.App. 98 2010-06-02 Eyler, D. Dziamko v. Chuhaj206
2080/09193 Md.App. 178 2010-06-02 Eyler, D. Brandenburg v. LaBarre207
80/09414 Md. 457 2010-06-02 Battaglia Catalyst Health v. Magill208
134/09193 Md.App. 29 2010-05-28 Salmon Smith v. Smith209
334/09193 Md.App. 687 2010-05-28 Moylan Epps v. State210
164/09193 Md.App. 45 2010-05-28 Eyler, D. Lee v. State211
53/09193 Md.App. 1 2010-05-28 Davis Strub v. C & M Builders212
2261/08192 Md.App. 695 2010-05-27 Zarnoch Price v. Upper Chesapeake Health213
2151/08192 Md.App. 653 2010-05-27 Wright Thompson v. State214
2152/08192 Md.App. 678 2010-05-27 Salmon Walker v. State215
2836/08192 Md.App. 742 2010-05-27 Rodowsky Hubbel v. City of Baltimore216
2591/08192 Md.App. 719 2010-05-27 Meredith Seminary Galleria v. Dulaney Valley217
1935/08192 Md.App. 625 2010-05-27 Matricciani Allen v. State218
1132/08192 Md.App. 518 2010-05-27 Hollander Griffin v. State219
2905/07192 Md.App. 505 2010-05-27 Graeff Murphy v. State220
1669/08192 Md.App. 553 2010-05-27 Eyler, D. Livingston v. State221
1913/08192 Md.App. 577 2010-05-27 Davis Coleman-Fuller v. State222
1204/07192 Md.App. 469 2010-05-26 Meredith Adams v. State223
1652/06192 Md.App. 438 2010-05-26 Kenney Williams v. Work224
74/09414 Md. 919 2010-05-24 Greene Dickerson v. Longoria225
11/09415 Md. 62 2010-05-19 Greene Agurs v. State226
26/09414 Md. 372 2010-05-18 Murphy Garner v. State227
2ag/09414 Md. 501 2010-05-18 Adkins Attorney Grievance v. Marcalus228
71/09414 Md. 334 2010-05-17 Rodowsky Prince George's County v. Brent229
102/09414 Md. 357 2010-05-17 Greene Smith v. State230
49/09414 Md. 284 2010-05-14 Harrell Boulden v. State231
113/08414 Md. 265 2010-05-14 Barbera Thanner v. Baltimore County232
72/09414 Md. 243 2010-05-13 Murphy Rudman v. Board of Physicians233
140/07414 Md. 215 2010-05-13 Murphy Lark v. Montgomery Hospice234
153pc/09414 Md. 214 2010-05-12 PC Order Johnson v. State235
86/09414 Md. 180 2010-05-12 Battaglia Sidbury v. State236
112/09414 Md. 195 2010-05-12 Battaglia Schlosser v. Uninsured Employers' Fund237
27ag/09414 Md. 147 2010-05-12 Battaglia Attorney Grievance v. Bleecker238
129/07414 Md. 92 2010-05-11 Eldridge Alston v, State239
57/09414 Md. 118 2010-05-11 Adkins Boemio v. Boemio240
124pc/07413 Md. 605 2010-05-10 PC Order Shatzer v. State241
85ag/09414 Md. 91 2010-05-10 Order Attorney Grievance v. Thompson242
75ag/09413 Md. 676 2010-05-10 Order Attorney Grievance v, Stoffan243
154/08413 Md. 606 2010-05-10 Harrell Sillers v. WSSC244
70/09413 Md. 638 2010-05-10 Harrell RRC v BAA245
91/09413 Md. 678 2010-05-10 Harrell Diallo v. State246
54/09192 Md.App. 405 2010-05-07 Wright Norman v. Borison247
48/09192 Md.App. 366 2010-05-07 Graeff Barksdale v. Wilkowsky248
191/09192 Md.App. 428 2010-05-07 Eyler, J. Grove v. George249
2690/08192 Md.App. 321 2010-05-06 Raker Baiza v. College Park250
2853/08192 Md.App. 343 2010-05-06 Meredith Anderson v. Montgomery County251
2503/08192 Md.App. 354 2010-05-06 Matricciani Fire/Police Retirement v. Middleton252
2431/08193 Md.App. 601 2010-05-05 Wright Andrulonis v. Andrulonis253
1938/08192 Md.App. 192 2010-05-05 Kehoe Collins v. State254
2601/08192 Md.App. 218 2010-05-05 Eyler, D. MBC v. Baltimore255
1723/08192 Md.App. 277 2010-05-03 Zarnoch Reeves v. State256
1604/08192 Md.App. 251 2010-05-03 Woodward In Re: Caitlin N.257
1783/08192 Md.App. 307 2010-05-03 Sharer Bare v. Bare258
1525/08192 Md.App. 172 2010-04-30 Kehoe Chesapeake Bay Foun. v. Clickner259
1032/08192 Md.App. 134 2010-04-30 Hollander Marlin v. State260
1177/08192 Md.App. 85 2010-04-30 Eyler, D. Harrod v. State261
2924/07192 Md.App. 1 2010-04-29 Kenney Morris v. State262
2627/07191 Md.App. 719 2010-04-29 Kenney Herlson v. RTS263
2934/07192 Md.App. 45 2010-04-29 Hollander Turner v. State264
1533/09191 Md.App. 678 2010-04-27 Graeff In Re: Shirley B.265
17/09413 Md. 569 2010-04-26 Barbera Dallas v. State266
61/09413 Md. 521 2010-04-22 Battaglia Williamson v. State267
80ag/09413 Md. 520 2010-04-20 Order Attorney Grievance v. Thomas268
54/09413 Md. 491 2010-04-19 Greene Stouffer v. Reid269
2/09413 Md. 475 2010-04-16 Harrell Workman v. State270
9/09413 Md. 411 2010-04-16 Harrell Public Defender v. State271
75/09413 Md. 384 2010-04-15 Harrell Usiak v. State272
122/09413 Md. 360 2010-04-14 Barbera State v. Luckett273
81/09413 Md. 287 2010-04-13 Battaglia Henriquez v. Henriquez274
96/09413 Md. 309 2010-04-13 Barbera 120 W. Fayette v. Baltimore275
56/09413 Md. 265 2010-04-12 Greene Briggs v. State276
22/09413 Md. 247 2010-04-09 Adkins Thomas v. State277
15/09413 Md. 230 2010-04-09 Adkins Suder v. Whiteford278
99pco/09414 Md. 263 2010-04-08 PC Order Harvey v. State279
32/08413 Md. 201 2010-04-08 Barbera Crofton Convalescent v. Dept of Health280
89/09413 Md. 191 2010-04-06 Murphy MVA v Jaigobin281
60/09413 Md. 163 2010-04-05 Harrell Falik v. Hornage282
51ag/09413 Md. 131 2010-04-01 Order Attorney Grievance v. Hutchison-Smith283
4/09191 Md.App. 613 2010-03-31 Wright Tri-County v. Kids First284
2816/08191 Md.App. 596 2010-03-31 Rodowsky Alcoa v. Stalker Brothers285
2800/08191 Md.App. 587 2010-03-31 Matricciani Prime Rate v. MIA286
109/09191 Md.App. 664 2010-03-31 Matricciani Neal v. CICB287
19/09191 Md.App. 625 2010-03-31 Eyler, D. Cochran v. Griffith Energy288
2588/08191 Md.App. 569 2010-03-31 Davis Wilson v. Shady Grove289
2290/08191 Md.App. 533 2010-03-30 Wilner Keyes v. Lerman290
2497/08191 Md.App. 548 2010-03-30 Thieme Granite State v. Hernandez291
399/09191 Md.App. 505 2010-03-29 Woodward In Re: Adoption of Darjal C.292
2038/08191 Md.App. 462 2010-03-29 Raker Letke v. U.S. Surety293
1819/08191 Md.App. 408 2010-03-29 Moylan State v. Denisyuk294
2280/08191 Md.App. 482 2010-03-29 Davis Taylor v. First Mariner295
1122/08191 Md.App. 319 2010-03-26 Sharer Wilder v. State296
1619/08191 Md.App. 386 2010-03-26 Graeff Nash v. State297
1247/08191 Md.App. 370 2010-03-25 Kenney Ogundipe v. State298
1118/08191 Md.App. 297 2010-03-25 Kehoe Neal v. State299
823/08191 Md.App. 260 2010-03-25 Kehoe Critical Area Comm. v. Moreland300
2852/06191 Md.App. 196 2010-03-24 Woodward Rodriguez v. State301
462/08191 Md.App. 122 2010-03-24 Meredith James v. State302
46/09413 Md. 132 2010-03-22 Greene Allen v. Dackman303
40/09413 Md. 70 2010-03-17 Greene MVA v. Dove304
73/09413 Md. 96 2010-03-17 Battaglia Blondell v. Littlepage305
31ag/09413 Md. 46 2010-03-16 Battaglia Attorney Grievance v. Gordon306
28/09413 Md. 15 2010-03-12 Greene Schultz v. Bank of America307
1m/09412 Md. 691 2010-03-12 Greene Proctor v. WMATA308
23ag/09413 Md. 1 2010-03-12 Bell Attorney Grievance v. Downey309
143/08414 Md. 1 2010-03-11 Adkins Md. Reclamation v. Harford County310
151/08412 Md. 674 2010-03-09 Murphy Hariri v. Dahne311
54pc/08412 Md. 672 2010-03-05 PC Order Richmond v. District Court312
2533/08191 Md.App. 159 2010-03-02 Zarnoch Addison v. State313
2917/08191 Md.App. 185 2010-03-02 Eyler, J. Helms v. State314
2242/08190 Md.App. 736 2010-03-01 Rodowsky Darby v. Marley Cooling315
2445/08191 Md.App. 124 2010-03-01 Moylan Kurstin v. Bromberg316
2255/08191 Md.App. 1 2010-03-01 Matricciani Weichert v. Faust317
2260/08191 Md.App. 22 2010-03-01 Davis Benway v. Port Authority318
2206/08190 Md.App. 649 2010-02-26 Salmon Billings v. Prince George's County319
1924/08190 Md.App. 668 2010-02-26 Graeff Worcester County v. BEKA 320
27/09412 Md. 635 2010-02-26 Bell Moore v. State321
1388/08190 Md.App. 577 2010-02-25 Matricciani Walker v. State322
1900/08190 Md.App. 595 2010-02-25 Hollander Abbott v. State323
2432/07190 Md.App. 553 2010-02-24 Sharer Murray v. Murray324
2186/07190 Md.App. 532 2010-02-24 Kehoe DeHogue v. State325
41/08412 Md. 593 2010-02-23 Barbera Odum v. State326
7/09412 Md. 555 2010-02-19 Barbera Schuele v. Case Handyman327
12/09412 Md. 578 2010-02-19 Adkins Houghton v. Forrest328
126/08412 Md. 497 2010-02-17 Murphy Thompson v. State329
18ag/09412 Md. 536 2010-02-17 Bell Attorney Grievance v. Haas330
92pc/09412 Md. 492 2010-02-16 PC Order Paz-Rubio v. Ambrose331
38/09412 Md. 475 2010-02-16 Harrell Mirjafari v. Cohn332
13ag/09412 Md. 473 2010-02-09 PC Order Attorney Grievance v. Costanzo333
64/09412 Md. 616 2010-02-09 Harrell Flanagan v. Human Resources334
2887/08190 Md.App. 497 2010-02-04 Moylan Jackson v. State335
2283/08190 Md.App. 438 2010-02-03 Wright Workers' Insurance v. Orient Express 336
2285/08190 Md.App. 463 2010-02-03 Thieme Fagnani v. Fisher337
2252/08190 Md.App. 414 2010-02-03 Thieme Bray v. Aberdeen Police338
2725/08190 Md.App. 479 2010-02-03 Salmon Hurd v. State339
97o/09412 Md. 473 2010-02-03 Order Antonio Levar Brown v. State340
1476/08190 Md.App. 359 2010-02-02 Salmon State Police v. NAACP341
540/08190 Md.App. 331 2010-02-02 Matricciani SCAPA v Saville342
2122/08190 Md.App. 395 2010-02-02 Matricciani Baltimore v. Guttm343
1021/07190 Md.App. 305 2010-02-02 Eyler, D. Height v. State344
1362/08190 Md.App. 250 2010-02-01 Woodward Bierman v. Hunter345
1477/08190 Md.App. 275 2010-02-01 Kenney Joseph v. State346
2034/08190 Md.App. 291 2010-02-01 Eyler, J. FOP v. Wicomico County347
959/08190 Md.App. 217 2010-02-01 Eyler, J. Crane v. Linkus348
12ag/09412 Md. 472 2010-02-01 Order Attorney Grievance v. Dixon349
663/08191 Md.App. 48 2010-01-29 Kehoe Washington, Keith A. v. State350
48ag/09412 Md. 471 2010-01-29 Order Attorney Grievance v. Callegary351
63/08190 Md.App. 168 2010-01-28 Sharer Washington, Eric T. v. State352
435/08190 Md.App. 179 2010-01-28 Matricciani Freedman v. Comcast353
1818/07190 Md.App. 97 2010-01-27 Zarnoch Prince George's County v. Longtin354
56/07190 Md.App. 65 2010-01-27 Woodward Cave v. Elliott355
2273/07190 Md.App. 146 2010-01-27 Meredith Collins/Snoops v. CJF356
41/09412 Md. 442 2010-01-19 Battaglia In Re: Alonza D.357
31/09412 Md. 424 2010-01-15 Rodowsky St. Paul Travelers v. Millstone358
125/08412 Md. 392 2010-01-15 Adkins Bomas v. State359
10/09412 Md. 349 2010-01-14 Greene Bailey v. State360
3/09412 Md. 328 2010-01-14 Adkins Friedman v. Hannan361
39/09412 Md. 308 2010-01-13 Harrell Rosemann v. Salsbury, Clements, 362
34/09412 Md. 288 2010-01-13 Battaglia Elder v. Smith363
78/09412 Md. 257 2010-01-12 Harrell Lockshin v. Semsker364
152pc/09412 Md. 253 2010-01-11 PC Order Brummell v. State365
29/09412 Md. 230 2010-01-11 Battaglia Miller and Smith v. Casey PMN366
4/09412 Md. 180 2010-01-07 Battaglia Burnside v. Wong367
2939/08190 Md.App. 11 2010-01-05 Zarnoch Riffin v. Baltimore County368
2677/08190 Md.App. 1 2010-01-05 Eyler, J. Spry v. Gooner369
862/09190 Md.App. 37 2010-01-05 Eyler, D. State v. Faulkner370
1851/08189 Md.App. 675 2010-01-04 Matricciani Pfeifer v. Phoenix Insurance371
2047/08189 Md.App. 593 2010-01-04 Eyler, J. Classics Chicago v. Comptroller372
2219/08190 Md.App. 305 2010-01-04 Eyler, D. Chicago Title v. Mary B.373

[ Home | Site Index | Opinions | Search |